Carpe Diem III — FMAV — position and weather

sailwx.info

Track history (hours):
 
Tides and Currents Weather Stations Pressure Air Temp Water Temp Dewpoint Dewpoint Depression Visibility Wind Speed Wind Dir Waves Ship Positions

Carpe Diem III

Last reported at 2017-Nov-05 16:55 UTC. Time now 2017-Nov-21 02:17 UTC.
Position N 47°33' W 002°51'.
Warning: this ship's position is 15 days out of date.

Length 13 m.

Type: Pleasure craft. MMSI: 228191700.

Date/timePositionNaut miles runAvg speedWind from/ knotsBaromVisibWave heightAir tempDewpointWater temp
2017-Nov-05 16:55N 47°33' W 002°51'2 4.1
2017-Nov-05 16:30N 47°34' W 002°53'3 5.6
2017-Nov-05 16:00N 47°31' W 002°54'2 4.4
2017-Nov-05 15:30N 47°30' W 002°56'3 6.6
2017-Nov-05 15:00N 47°26' W 002°58'4 7.5
2017-Nov-05 14:25N 47°23' W 003°02'511.5
2017-Nov-05 13:59N 47°24' W 003°09'3 0.1
2017-Nov-04 14:48N 47°22' W 003°13'1 2.5
2017-Nov-04 14:29N 47°23' W 003°12'3 4.3
2017-Nov-04 13:52N 47°23' W 003°08'1 2.4
2017-Nov-04 13:26N 47°22' W 003°07'3 7.6
2017-Nov-04 13:00N 47°24' W 003°05'6 2.3
2017-Nov-04 10:26N 47°24' W 002°56'4 8.1
2017-Nov-04 09:59N 47°27' W 002°56'4 8.5
2017-Nov-04 09:30N 47°31' W 002°55'3 6.3
2017-Nov-04 09:00N 47°34' W 002°52'1 2.1
2017-Nov-04 08:28N 47°33' W 002°51'0 0.0
2017-Nov-04 07:58N 47°33' W 002°51'0 0.0
2017-Nov-04 07:28N 47°33' W 002°51'  
2017-Oct-27 12:46N 47°33' W 002°51'0 0.0
2017-Oct-27 12:25N 47°33' W 002°51'0 0.0
2017-Oct-27 11:58N 47°33' W 002°51'0 0.0
2017-Oct-27 11:28N 47°33' W 002°51'0 0.0
2017-Oct-27 10:58N 47°33' W 002°51'0 0.0
2017-Oct-27 10:28N 47°33' W 002°51'0 0.0
2017-Oct-27 09:58N 47°33' W 002°51'0 0.0
2017-Oct-27 09:28N 47°33' W 002°51'0 0.0
2017-Oct-27 08:58N 47°33' W 002°51'  
Track history (hours):
 
Tides and Currents Weather Stations Pressure Air Temp Water Temp Dewpoint Dewpoint Depression Visibility Wind Speed Wind Dir Waves Ship Positions

Carpe Diem III

Last reported at 2017-Nov-05 16:55 UTC. Time now 2017-Nov-21 02:17 UTC.
Position N 47°33' W 002°51'.
Warning: this ship's position is 15 days out of date.

Length 13 m.

Type: Pleasure craft. MMSI: 228191700.

Date/timePositionNaut miles runAvg speedWind from/ knotsBaromVisibWave heightAir tempDewpointWater temp
2017-Nov-05 16:55N 47°33' W 002°51'2 4.1
2017-Nov-05 16:30N 47°34' W 002°53'3 5.6
2017-Nov-05 16:00N 47°31' W 002°54'2 4.4
2017-Nov-05 15:30N 47°30' W 002°56'3 6.6
2017-Nov-05 15:00N 47°26' W 002°58'4 7.5
2017-Nov-05 14:25N 47°23' W 003°02'511.5
2017-Nov-05 13:59N 47°24' W 003°09'3 0.1
2017-Nov-04 14:48N 47°22' W 003°13'1 2.5
2017-Nov-04 14:29N 47°23' W 003°12'3 4.3
2017-Nov-04 13:52N 47°23' W 003°08'1 2.4
2017-Nov-04 13:26N 47°22' W 003°07'3 7.6
2017-Nov-04 13:00N 47°24' W 003°05'6 2.3
2017-Nov-04 10:26N 47°24' W 002°56'4 8.1
2017-Nov-04 09:59N 47°27' W 002°56'4 8.5
2017-Nov-04 09:30N 47°31' W 002°55'3 6.3
2017-Nov-04 09:00N 47°34' W 002°52'1 2.1
2017-Nov-04 08:28N 47°33' W 002°51'0 0.0
2017-Nov-04 07:58N 47°33' W 002°51'0 0.0
2017-Nov-04 07:28N 47°33' W 002°51'  
2017-Oct-27 12:46N 47°33' W 002°51'0 0.0
2017-Oct-27 12:25N 47°33' W 002°51'0 0.0
2017-Oct-27 11:58N 47°33' W 002°51'0 0.0
2017-Oct-27 11:28N 47°33' W 002°51'0 0.0
2017-Oct-27 10:58N 47°33' W 002°51'0 0.0
2017-Oct-27 10:28N 47°33' W 002°51'0 0.0
2017-Oct-27 09:58N 47°33' W 002°51'0 0.0
2017-Oct-27 09:28N 47°33' W 002°51'0 0.0
2017-Oct-27 08:58N 47°33' W 002°51'  

Dump ship's entire track history